Time;durP1;ratioP1;P1;durP2;ratioP2;P2;SDS_P1;SDS_P2;PMS_P1;PMS_P2;Temp;Humidity;BMP_temperature;BMP_pressure;BME280_temperature;BME280_humidity;BME280_pressure;Samples;Min_cycle;Max_cycle;Signal;HPM_P1;HPM_P2
2023/08/05 00:00:43;;;;;;;6.85;3.75;;;17.00;99.90;;;;;;5012799;28;20229;-78
2023/08/05 00:03:12;;;;;;;5.72;3.75;;;16.80;99.90;;;;;;5012176;28;20229;-80
2023/08/05 00:05:40;;;;;;;5.97;3.78;;;16.90;99.90;;;;;;5013262;28;20285;-79
2023/08/05 00:08:07;;;;;;;7.13;4.25;;;16.90;99.90;;;;;;5012517;28;20226;-80
2023/08/05 00:10:34;;;;;;;6.60;3.90;;;16.90;99.90;;;;;;5012007;28;20206;-81
2023/08/05 00:13:01;;;;;;;5.28;3.78;;;16.90;99.90;;;;;;5012903;28;20203;-79
2023/08/05 00:15:28;;;;;;;9.38;3.40;;;16.90;99.90;;;;;;5012592;28;20228;-79
2023/08/05 00:17:55;;;;;;;4.45;3.17;;;16.90;99.90;;;;;;5010452;28;20205;-79
2023/08/05 00:20:22;;;;;;;5.97;3.88;;;16.80;99.90;;;;;;5012331;28;20218;-78
2023/08/05 00:22:49;;;;;;;6.50;3.70;;;16.80;99.90;;;;;;5012712;28;20259;-79
2023/08/05 00:25:16;;;;;;;4.63;3.53;;;16.80;99.90;;;;;;5012383;28;20209;-78
2023/08/05 00:27:43;;;;;;;5.45;3.80;;;16.80;99.90;;;;;;5012326;28;20218;-79
2023/08/05 00:30:11;;;;;;;6.63;3.97;;;16.70;99.90;;;;;;5012787;28;20214;-77
2023/08/05 00:32:39;;;;;;;5.43;3.70;;;16.70;99.90;;;;;;4986550;28;20265;-79
2023/08/05 00:35:07;;;;;;;5.57;3.63;;;16.70;99.90;;;;;;5012026;28;20241;-78
2023/08/05 00:37:35;;;;;;;6.47;4.20;;;16.70;99.90;;;;;;5012415;28;20680;-80
2023/08/05 00:40:03;;;;;;;6.13;4.32;;;16.70;99.90;;;;;;5012204;28;20301;-79
2023/08/05 00:42:31;;;;;;;7.15;3.58;;;16.70;99.90;;;;;;5007591;28;20710;-79
2023/08/05 00:44:58;;;;;;;5.60;4.07;;;16.60;99.90;;;;;;5012302;28;20302;-79
2023/08/05 00:47:25;;;;;;;4.35;3.72;;;16.60;99.90;;;;;;5011905;28;20210;-80
2023/08/05 00:49:54;;;;;;;6.15;4.15;;;16.60;99.90;;;;;;5011672;28;20650;-79
2023/08/05 00:52:23;;;;;;;9.88;4.32;;;16.60;99.90;;;;;;5011824;28;20220;-79
2023/08/05 00:54:50;;;;;;;8.50;3.97;;;16.50;99.90;;;;;;5012229;28;20245;-79
2023/08/05 00:57:19;;;;;;;5.87;3.60;;;16.50;99.90;;;;;;5011621;28;20218;-80
2023/08/05 00:59:46;;;;;;;4.95;3.63;;;16.50;99.90;;;;;;5015965;28;20222;-79
2023/08/05 01:02:13;;;;;;;6.50;3.78;;;16.40;99.90;;;;;;5006442;28;20206;-79
2023/08/05 01:04:40;;;;;;;5.63;3.60;;;16.30;99.90;;;;;;5011789;28;20198;-79
2023/08/05 01:07:08;;;;;;;5.53;3.65;;;16.30;99.90;;;;;;5011903;28;20225;-79
2023/08/05 01:09:35;;;;;;;6.07;4.00;;;16.30;99.90;;;;;;5011752;28;20206;-80
2023/08/05 01:12:02;;;;;;;7.65;3.72;;;16.30;99.90;;;;;;5007228;28;20215;-79
2023/08/05 01:14:29;;;;;;;5.15;3.65;;;16.30;99.90;;;;;;5010784;28;20691;-81
2023/08/05 01:16:56;;;;;;;8.38;3.90;;;16.30;99.90;;;;;;5007081;28;20678;-80
2023/08/05 01:19:25;;;;;;;6.55;3.72;;;16.40;99.90;;;;;;5011885;28;20209;-80
2023/08/05 01:22:25;;;;;;;6.22;3.65;;;16.40;99.90;;;;;;5010832;28;20214;-79
2023/08/05 01:25:04;;;;;;;5.57;3.85;;;16.40;99.90;;;;;;5004417;28;20205;-79
2023/08/05 01:27:33;;;;;;;5.85;3.42;;;16.40;99.90;;;;;;5009876;28;20224;-79
2023/08/05 01:30:00;;;;;;;9.80;3.55;;;16.50;99.90;;;;;;5009948;28;20210;-78
2023/08/05 01:32:28;;;;;;;6.78;3.58;;;16.50;99.90;;;;;;5011196;28;20206;-82
2023/08/05 01:34:58;;;;;;;6.97;3.95;;;16.50;99.90;;;;;;5011404;28;20230;-80
2023/08/05 01:37:25;;;;;;;6.75;3.67;;;16.50;99.90;;;;;;5011505;28;20210;-79
2023/08/05 01:39:52;;;;;;;5.57;3.55;;;16.50;99.90;;;;;;5011371;28;20654;-79
2023/08/05 01:42:20;;;;;;;7.03;3.97;;;16.40;99.90;;;;;;5010152;28;20215;-79
2023/08/05 01:44:46;;;;;;;5.50;3.85;;;16.40;99.90;;;;;;5011934;28;20199;-79
2023/08/05 01:47:13;;;;;;;5.65;3.72;;;16.40;99.90;;;;;;5012164;28;20207;-77
2023/08/05 01:49:41;;;;;;;4.80;3.58;;;16.40;99.90;;;;;;5009909;28;20289;-78
2023/08/05 01:52:07;;;;;;;5.70;3.80;;;16.40;99.90;;;;;;5010975;28;20211;-78
2023/08/05 01:54:35;;;;;;;5.38;3.13;;;16.40;99.90;;;;;;5001359;28;20549;-81
2023/08/05 01:57:02;;;;;;;5.85;3.70;;;16.40;99.90;;;;;;5009804;28;20962;-78
2023/08/05 01:59:28;;;;;;;6.10;3.75;;;16.50;99.90;;;;;;5007654;28;20690;-78
2023/08/05 02:01:55;;;;;;;6.43;3.78;;;16.50;99.90;;;;;;4997545;28;20256;-80
2023/08/05 02:04:22;;;;;;;6.22;3.83;;;16.50;99.90;;;;;;5010353;28;20280;-79
2023/08/05 02:06:49;;;;;;;10.95;3.80;;;16.60;99.90;;;;;;5010771;28;20202;-80
2023/08/05 02:09:16;;;;;;;7.28;3.88;;;16.60;99.90;;;;;;5009938;28;21583;-80
2023/08/05 02:11:44;;;;;;;5.13;3.50;;;16.60;99.90;;;;;;5010216;28;20214;-78
2023/08/05 02:14:11;;;;;;;5.13;3.28;;;16.60;99.90;;;;;;5010497;28;20228;-80
2023/08/05 02:16:37;;;;;;;4.13;2.83;;;16.70;99.90;;;;;;5007583;28;20234;-78
2023/08/05 02:19:04;;;;;;;7.93;4.15;;;16.70;99.90;;;;;;5010434;28;20489;-79
2023/08/05 02:21:32;;;;;;;7.47;3.90;;;16.70;99.90;;;;;;5011256;28;20229;-80
2023/08/05 02:23:59;;;;;;;6.13;3.45;;;16.70;99.90;;;;;;5010271;28;20202;-80
2023/08/05 02:26:27;;;;;;;7.40;3.40;;;16.70;99.90;;;;;;5009373;28;20234;-79
2023/08/05 02:28:53;;;;;;;7.55;3.97;;;16.70;99.90;;;;;;5010701;28;20201;-79
2023/08/05 02:31:20;;;;;;;6.30;3.45;;;16.70;99.90;;;;;;5009096;28;20261;-80
2023/08/05 02:33:47;;;;;;;6.10;3.95;;;16.80;99.90;;;;;;5010614;28;20199;-81
2023/08/05 02:36:14;;;;;;;5.72;3.78;;;16.80;99.90;;;;;;5010089;28;20276;-80
2023/08/05 02:38:41;;;;;;;7.07;3.70;;;16.70;99.90;;;;;;4992455;28;20197;-80
2023/08/05 02:41:08;;;;;;;7.68;3.33;;;16.80;99.90;;;;;;5010020;28;20244;-79
2023/08/05 02:43:35;;;;;;;6.63;3.75;;;16.80;99.90;;;;;;5009647;28;20220;-78
2023/08/05 02:46:02;;;;;;;4.05;3.08;;;16.80;99.90;;;;;;5010236;28;20218;-79
2023/08/05 02:48:29;;;;;;;6.85;4.22;;;16.70;99.90;;;;;;5010190;28;20245;-80
2023/08/05 02:50:57;;;;;;;5.55;3.78;;;16.70;99.90;;;;;;5009545;28;20218;-81
2023/08/05 02:53:23;;;;;;;8.40;4.00;;;16.80;99.90;;;;;;5009742;28;20203;-80
2023/08/05 02:55:51;;;;;;;5.57;3.50;;;16.80;99.90;;;;;;5006878;28;20286;-78
2023/08/05 02:58:19;;;;;;;5.85;3.92;;;16.80;99.90;;;;;;5008181;28;20217;-78
2023/08/05 03:00:49;;;;;;;7.72;4.07;;;16.80;99.90;;;;;;5008254;28;20788;-80
2023/08/05 03:03:16;;;;;;;5.03;3.55;;;16.80;99.90;;;;;;5009252;28;20198;-79
2023/08/05 03:05:43;;;;;;;5.75;3.55;;;16.80;99.90;;;;;;5004979;28;20206;-80
2023/08/05 03:08:11;;;;;;;6.18;3.50;;;16.80;99.90;;;;;;5009046;28;20315;-78
2023/08/05 03:10:39;;;;;;;6.13;3.53;;;16.80;99.90;;;;;;5009616;28;20214;-80
2023/08/05 03:13:06;;;;;;;5.20;3.70;;;16.80;99.90;;;;;;5009134;28;20211;-80
2023/08/05 03:15:33;;;;;;;6.32;3.70;;;16.70;99.90;;;;;;5009782;28;20322;-80
2023/08/05 03:18:00;;;;;;;5.05;3.85;;;16.80;99.90;;;;;;5009389;28;20206;-79
2023/08/05 03:20:29;;;;;;;6.25;3.47;;;16.70;99.90;;;;;;5009556;28;20274;-81
2023/08/05 03:22:57;;;;;;;5.97;3.70;;;16.70;99.90;;;;;;5008342;28;20543;-80
2023/08/05 03:25:25;;;;;;;6.43;3.90;;;16.70;99.90;;;;;;5008104;28;20858;-80
2023/08/05 03:27:52;;;;;;;7.00;3.75;;;16.70;99.90;;;;;;5008255;28;20336;-80
2023/08/05 03:30:19;;;;;;;8.77;3.85;;;16.70;99.90;;;;;;5008055;28;20214;-79
2023/08/05 03:32:47;;;;;;;4.53;3.78;;;16.70;99.90;;;;;;5008322;28;20552;-79
2023/08/05 03:35:15;;;;;;;5.53;3.70;;;16.60;99.90;;;;;;5008475;28;20592;-79
2023/08/05 03:37:43;;;;;;;5.90;4.13;;;16.60;99.90;;;;;;5009640;28;20214;-79
2023/08/05 03:40:10;;;;;;;5.13;3.80;;;16.60;99.90;;;;;;5009379;28;20203;-78
2023/08/05 03:42:37;;;;;;;5.32;3.63;;;16.50;99.90;;;;;;4997022;28;20221;-79
2023/08/05 03:45:04;;;;;;;9.05;4.13;;;16.50;99.90;;;;;;5009130;28;20256;-78
2023/08/05 03:47:32;;;;;;;8.85;4.05;;;16.50;99.90;;;;;;5008827;28;20236;-80
2023/08/05 03:50:00;;;;;;;5.72;3.55;;;16.50;99.90;;;;;;5009431;28;20194;-80
2023/08/05 03:52:27;;;;;;;4.95;3.55;;;16.50;99.90;;;;;;5007792;28;20206;-81
2023/08/05 03:54:54;;;;;;;7.00;3.42;;;16.50;99.90;;;;;;5008236;28;20206;-79
2023/08/05 03:57:21;;;;;;;5.25;3.53;;;16.40;99.90;;;;;;5009216;28;20225;-79
2023/08/05 03:59:49;;;;;;;7.38;3.90;;;16.40;99.90;;;;;;5008357;28;20210;-80
2023/08/05 04:02:17;;;;;;;8.13;3.90;;;16.40;99.90;;;;;;5008439;28;20289;-80
2023/08/05 04:04:44;;;;;;;10.40;3.95;;;16.30;99.90;;;;;;5008031;28;20285;-80
2023/08/05 04:07:12;;;;;;;7.82;3.72;;;16.20;99.90;;;;;;5006905;28;20242;-80
2023/08/05 04:09:39;;;;;;;5.47;3.90;;;16.20;99.90;;;;;;5008657;28;20361;-79
2023/08/05 04:12:09;;;;;;;7.73;3.67;;;16.10;99.90;;;;;;5020557;28;20647;-81
2023/08/05 04:14:39;;;;;;;9.25;3.90;;;16.00;99.90;;;;;;5007053;28;20232;-80
2023/08/05 04:17:08;;;;;;;7.67;3.90;;;16.10;99.90;;;;;;5001984;28;20234;-80
2023/08/05 04:19:36;;;;;;;6.13;3.40;;;16.00;99.90;;;;;;5003057;28;20713;-81
2023/08/05 04:22:04;;;;;;;6.90;4.00;;;16.00;99.90;;;;;;4998590;28;20534;-80
2023/08/05 04:24:32;;;;;;;10.70;3.78;;;15.90;99.90;;;;;;5008455;28;20581;-78
2023/08/05 04:26:59;;;;;;;7.03;4.20;;;15.90;99.90;;;;;;5003770;28;20390;-81
2023/08/05 04:29:26;;;;;;;9.77;4.43;;;15.90;99.90;;;;;;5007063;28;20202;-79
2023/08/05 04:31:53;;;;;;;9.33;3.67;;;15.90;99.90;;;;;;5008678;28;20210;-79
2023/08/05 04:34:21;;;;;;;5.88;3.75;;;15.90;99.90;;;;;;5008848;28;20281;-81
2023/08/05 04:36:51;;;;;;;6.07;4.18;;;16.00;99.90;;;;;;5013777;28;20230;-80
2023/08/05 04:39:20;;;;;;;8.93;4.10;;;16.00;99.90;;;;;;5031167;28;20258;-79
2023/08/05 04:41:47;;;;;;;8.52;4.32;;;16.00;99.90;;;;;;5030327;28;20226;-80
2023/08/05 04:44:14;;;;;;;7.90;4.10;;;16.00;99.90;;;;;;5030305;28;20195;-79
2023/08/05 04:46:41;;;;;;;6.95;4.28;;;16.10;99.90;;;;;;5022149;28;20652;-80
2023/08/05 04:49:09;;;;;;;9.95;4.03;;;16.10;99.90;;;;;;5009291;28;20675;-80
2023/08/05 04:51:36;;;;;;;5.35;4.03;;;16.10;99.90;;;;;;5009294;28;20233;-80
2023/08/05 04:54:04;;;;;;;5.53;3.88;;;16.30;99.90;;;;;;5015473;28;20629;-80
2023/08/05 04:56:31;;;;;;;8.43;4.20;;;16.20;99.90;;;;;;5006556;28;20229;-81
2023/08/05 04:58:58;;;;;;;4.85;3.97;;;16.20;99.90;;;;;;5010133;28;20201;-80
2023/08/05 05:01:25;;;;;;;8.75;4.38;;;16.30;99.90;;;;;;5011836;28;20325;-80
2023/08/05 05:03:52;;;;;;;6.10;4.32;;;16.40;99.90;;;;;;5007852;28;20203;-79
2023/08/05 05:06:19;;;;;;;5.68;4.40;;;16.50;99.90;;;;;;5009419;28;20195;-81
2023/08/05 05:08:46;;;;;;;7.78;4.15;;;16.60;99.90;;;;;;5012818;28;20309;-79
2023/08/05 05:11:13;;;;;;;6.93;3.78;;;16.60;99.90;;;;;;5011428;28;20226;-79
2023/08/05 05:13:40;;;;;;;6.50;4.93;;;16.70;99.90;;;;;;5005941;28;20202;-80
2023/08/05 05:16:07;;;;;;;5.38;3.80;;;16.70;99.90;;;;;;5004088;28;20226;-78
2023/08/05 05:18:34;;;;;;;5.88;4.07;;;16.80;99.90;;;;;;5009706;28;20277;-79
2023/08/05 05:21:01;;;;;;;7.55;3.70;;;16.90;99.90;;;;;;5007553;28;20725;-79
2023/08/05 05:23:28;;;;;;;6.32;3.70;;;16.90;99.90;;;;;;5009651;28;20206;-79
2023/08/05 05:25:55;;;;;;;6.07;3.92;;;17.00;99.90;;;;;;5001939;28;20206;-81
2023/08/05 05:28:21;;;;;;;7.40;4.05;;;17.00;99.90;;;;;;5001629;28;20614;-79
2023/08/05 05:30:48;;;;;;;6.80;4.40;;;16.90;99.90;;;;;;5021307;28;20915;-80
2023/08/05 05:33:15;;;;;;;7.50;4.20;;;17.00;99.90;;;;;;5019516;28;20241;-80
2023/08/05 05:35:42;;;;;;;6.18;3.58;;;17.00;99.90;;;;;;5021613;28;20585;-80
2023/08/05 05:38:08;;;;;;;5.50;3.53;;;17.00;99.90;;;;;;5018013;28;20240;-80
2023/08/05 05:40:40;;;;;;;5.07;3.95;;;17.00;99.90;;;;;;5017713;28;20217;-79
2023/08/05 05:43:07;;;;;;;7.90;3.90;;;17.10;99.90;;;;;;5002777;28;20508;-79
2023/08/05 05:45:35;;;;;;;8.68;4.35;;;17.10;99.90;;;;;;5016440;28;20221;-79
2023/08/05 05:48:02;;;;;;;6.82;4.00;;;17.10;99.90;;;;;;5007191;28;20209;-79
2023/08/05 05:50:30;;;;;;;11.48;4.35;;;17.20;99.90;;;;;;5013260;28;20199;-80
2023/08/05 05:52:56;;;;;;;9.77;3.70;;;17.30;99.90;;;;;;5014176;28;20209;-79
2023/08/05 05:55:23;;;;;;;6.35;4.13;;;17.40;99.90;;;;;;5006248;28;20198;-79
2023/08/05 05:57:50;;;;;;;5.95;3.58;;;17.60;99.90;;;;;;5008397;28;20215;-80
2023/08/05 06:00:17;;;;;;;5.15;3.65;;;17.70;99.90;;;;;;5005090;28;20727;-82
2023/08/05 06:02:44;;;;;;;6.38;3.50;;;17.80;99.90;;;;;;5010406;28;20210;-79
2023/08/05 06:05:12;;;;;;;7.13;4.28;;;17.80;99.90;;;;;;5006033;28;20634;-79
2023/08/05 06:07:39;;;;;;;6.57;4.18;;;17.80;99.90;;;;;;5004976;28;20237;-80
2023/08/05 06:10:06;;;;;;;6.18;4.40;;;17.80;99.90;;;;;;5006017;28;20695;-79
2023/08/05 06:12:36;;;;;;;6.60;4.30;;;17.90;99.90;;;;;;5001499;28;20706;-80
2023/08/05 06:15:06;;;;;;;8.35;3.97;;;17.80;99.90;;;;;;5003088;28;20699;-79
2023/08/05 06:17:32;;;;;;;7.40;4.47;;;17.80;99.90;;;;;;5007964;28;20214;-80
2023/08/05 06:19:59;;;;;;;6.90;4.60;;;17.90;99.90;;;;;;4992576;28;20210;-79
2023/08/05 06:22:26;;;;;;;6.40;4.40;;;17.80;99.90;;;;;;5006864;28;20218;-79
2023/08/05 06:24:53;;;;;;;6.95;4.50;;;17.80;99.90;;;;;;5001923;28;20357;-79
2023/08/05 06:27:20;;;;;;;7.15;4.78;;;17.80;99.90;;;;;;5007817;28;20218;-79
2023/08/05 06:29:47;;;;;;;10.38;5.20;;;17.70;99.90;;;;;;5010044;28;20213;-80
2023/08/05 06:32:14;;;;;;;7.60;4.53;;;17.70;99.90;;;;;;5009687;28;20737;-79
2023/08/05 06:34:40;;;;;;;6.60;4.60;;;17.70;99.90;;;;;;5010210;28;20233;-78
2023/08/05 06:37:07;;;;;;;6.93;4.55;;;17.80;99.90;;;;;;5007012;28;20311;-80
2023/08/05 06:39:34;;;;;;;7.15;4.55;;;17.80;99.90;;;;;;5007627;28;20229;-79
2023/08/05 06:42:01;;;;;;;9.70;4.57;;;17.90;99.90;;;;;;5004916;28;20234;-81
2023/08/05 06:44:28;;;;;;;6.97;4.25;;;18.00;99.90;;;;;;5007705;28;20570;-79
2023/08/05 06:46:55;;;;;;;7.38;5.07;;;18.10;99.90;;;;;;5009594;28;20250;-79
2023/08/05 06:49:22;;;;;;;6.32;4.72;;;18.20;99.90;;;;;;5009249;28;20210;-79
2023/08/05 06:51:50;;;;;;;8.30;4.90;;;18.30;99.90;;;;;;5010116;28;20206;-82
2023/08/05 06:54:21;;;;;;;8.73;4.88;;;18.50;99.90;;;;;;5009342;28;20209;-80
2023/08/05 06:56:49;;;;;;;7.45;4.50;;;18.60;99.90;;;;;;5000669;28;20219;-78
2023/08/05 06:59:16;;;;;;;9.30;5.13;;;18.80;99.90;;;;;;5008015;28;20293;-81
2023/08/05 07:01:43;;;;;;;8.52;4.88;;;18.90;99.90;;;;;;4999921;28;20663;-80
2023/08/05 07:04:10;;;;;;;7.20;4.60;;;19.10;99.90;;;;;;5008597;28;20260;-81
2023/08/05 07:06:37;;;;;;;6.97;4.88;;;20.00;99.90;;;;;;5007101;28;20558;-80
2023/08/05 07:09:04;;;;;;;6.22;4.20;;;19.90;99.90;;;;;;5007451;28;20237;-78
2023/08/05 07:11:31;;;;;;;7.45;4.50;;;20.10;99.90;;;;;;5008544;28;20357;-80
2023/08/05 07:13:58;;;;;;;6.38;4.60;;;20.40;99.90;;;;;;5009146;28;20205;-81
2023/08/05 07:16:25;;;;;;;8.85;4.60;;;20.90;99.90;;;;;;5008329;28;20276;-80
2023/08/05 07:18:52;;;;;;;6.72;4.50;;;21.20;99.90;;;;;;5009459;28;20194;-79
2023/08/05 07:21:19;;;;;;;6.15;4.40;;;21.70;99.90;;;;;;5008459;28;20194;-79
2023/08/05 07:23:46;;;;;;;6.10;3.97;;;22.10;99.90;;;;;;4988349;28;20226;-79
2023/08/05 07:26:13;;;;;;;5.88;4.20;;;22.70;99.90;;;;;;5008311;28;20199;-80
2023/08/05 07:28:40;;;;;;;7.03;4.03;;;22.80;99.90;;;;;;5009038;28;20209;-80
2023/08/05 07:31:10;;;;;;;7.80;4.47;;;23.30;99.90;;;;;;5007017;28;20740;-80
2023/08/05 07:33:37;;;;;;;6.85;3.97;;;23.60;99.90;;;;;;5008078;28;20665;-81
2023/08/05 07:36:11;;;;;;;5.18;3.95;;;23.70;99.90;;;;;;5009555;28;20201;-81
2023/08/05 07:38:40;;;;;;;6.95;4.00;;;23.70;99.90;;;;;;5010111;28;20202;-80
2023/08/05 07:41:14;;;;;;;6.38;4.18;;;23.90;99.90;;;;;;4992134;28;20186;-82
2023/08/05 07:43:42;;;;;;;6.72;4.20;;;24.30;99.90;;;;;;5007869;28;20190;-80
2023/08/05 07:46:11;;;;;;;5.32;3.92;;;24.70;99.90;;;;;;5002491;28;20209;-81
2023/08/05 07:48:39;;;;;;;6.75;3.85;;;25.00;99.90;;;;;;5008623;28;20203;-80
2023/08/05 07:51:07;;;;;;;6.85;3.92;;;25.10;99.90;;;;;;5009579;28;20199;-80
2023/08/05 07:53:36;;;;;;;8.40;4.00;;;25.40;99.90;;;;;;5010728;28;20203;-80
2023/08/05 07:56:10;;;;;;;4.65;3.58;;;25.60;99.90;;;;;;5009403;28;20268;-82
2023/08/05 07:58:40;;;;;;;6.30;3.85;;;25.60;99.90;;;;;;5008670;28;20198;-82
2023/08/05 08:01:07;;;;;;;6.70;3.80;;;25.30;99.90;;;;;;5009272;28;20191;-81
2023/08/05 08:03:34;;;;;;;5.93;3.13;;;25.10;99.90;;;;;;4991784;28;20202;-81
2023/08/05 08:06:02;;;;;;;4.05;2.80;;;25.20;99.90;;;;;;5009255;28;20592;-81
2023/08/05 08:08:29;;;;;;;4.38;3.10;;;25.70;99.90;;;;;;5008842;28;20238;-81
2023/08/05 08:10:56;;;;;;;5.85;2.88;;;25.70;99.90;;;;;;5007181;28;20210;-82
2023/08/05 08:13:22;;;;;;;3.40;2.90;;;25.70;99.90;;;;;;4991386;28;20683;-82
2023/08/05 08:15:49;;;;;;;5.32;2.90;;;25.40;99.90;;;;;;5009173;28;20288;-81
2023/08/05 08:18:16;;;;;;;5.68;2.55;;;25.30;99.90;;;;;;4991336;28;20314;-81
2023/08/05 08:20:50;;;;;;;4.70;2.95;;;25.70;99.90;;;;;;5004647;28;20229;-80
2023/08/05 08:23:17;;;;;;;6.07;4.10;;;25.70;99.90;;;;;;5002102;28;20211;-82
2023/08/05 08:25:44;;;;;;;4.55;3.15;;;25.50;99.90;;;;;;4982555;28;20199;-82
2023/08/05 08:28:11;;;;;;;4.63;3.13;;;25.20;99.90;;;;;;4991283;28;20671;-82
2023/08/05 08:30:38;;;;;;;4.47;3.22;;;25.30;99.90;;;;;;5012887;28;20210;-83
2023/08/05 08:33:05;;;;;;;5.25;3.17;;;25.20;99.90;;;;;;5009170;28;20667;-82
2023/08/05 08:35:33;;;;;;;3.85;3.30;;;25.00;99.90;;;;;;5012748;28;20199;-82
2023/08/05 08:37:59;;;;;;;5.00;3.10;;;24.80;99.90;;;;;;5011165;28;20238;-83
2023/08/05 08:40:26;;;;;;;4.47;3.08;;;24.40;99.90;;;;;;5008626;28;20203;-81
2023/08/05 08:42:53;;;;;;;3.58;2.78;;;24.30;99.90;;;;;;4993798;28;20222;-82
2023/08/05 08:45:24;;;;;;;3.72;3.13;;;24.30;99.90;;;;;;5010313;28;20637;-82
2023/08/05 08:47:53;;;;;;;4.88;2.83;;;24.50;99.90;;;;;;5012384;28;20332;-79
2023/08/05 08:50:20;;;;;;;6.32;2.50;;;24.70;99.90;;;;;;5011506;28;20214;-81
2023/08/05 08:52:48;;;;;;;5.50;2.85;;;25.10;99.90;;;;;;5011254;28;20574;-80
2023/08/05 08:55:15;;;;;;;5.00;2.88;;;25.50;99.90;;;;;;5012173;28;20666;-81
2023/08/05 08:57:42;;;;;;;3.30;2.90;;;25.40;99.90;;;;;;5011503;28;20644;-79
2023/08/05 09:00:09;;;;;;;5.95;3.08;;;25.70;99.90;;;;;;5012618;28;20257;-82
2023/08/05 09:02:37;;;;;;;3.53;2.33;;;25.70;99.90;;;;;;4994822;28;20218;-87
2023/08/05 09:05:04;;;;;;;3.53;2.38;;;26.20;99.90;;;;;;4995931;28;20219;-82
2023/08/05 09:07:31;;;;;;;3.58;2.20;;;26.10;99.90;;;;;;5011373;28;20370;-80
2023/08/05 09:10:04;;;;;;;2.95;2.42;;;26.00;99.90;;;;;;5011935;28;20207;-82
2023/08/05 09:12:31;;;;;;;2.80;2.33;;;25.90;99.90;;;;;;5009053;28;20214;-81
2023/08/05 09:14:58;;;;;;;2.55;2.33;;;26.00;99.90;;;;;;5011618;28;20206;-81
2023/08/05 09:17:26;;;;;;;2.85;2.10;;;26.50;99.90;;;;;;5010882;28;20325;-83
2023/08/05 09:19:53;;;;;;;3.22;2.28;;;26.80;99.90;;;;;;5011717;28;20289;-81
2023/08/05 09:22:20;;;;;;;3.85;2.35;;;26.90;99.90;;;;;;5005418;28;20206;-84
2023/08/05 09:24:47;;;;;;;3.30;2.42;;;26.80;99.90;;;;;;5002353;28;20211;-80
2023/08/05 09:27:14;;;;;;;3.10;2.47;;;26.60;99.90;;;;;;5001499;28;20210;-81
2023/08/05 09:29:41;;;;;;;2.40;2.13;;;26.60;99.90;;;;;;5011246;28;20559;-81
2023/08/05 09:32:08;;;;;;;4.78;2.58;;;26.30;99.90;;;;;;5010846;28;20543;-80
2023/08/05 09:34:37;;;;;;;3.58;2.50;;;26.00;99.90;;;;;;5004520;28;20696;-82
2023/08/05 09:37:08;;;;;;;2.28;2.08;;;25.60;99.90;;;;;;5010379;28;20333;-80
2023/08/05 09:39:47;;;;;;;3.13;2.15;;;25.10;99.90;;;;;;4988568;28;20248;-79
2023/08/05 09:42:19;;;;;;;2.53;2.33;;;24.60;99.90;;;;;;5004990;28;20237;-80
2023/08/05 09:44:47;;;;;;;2.25;2.00;;;24.40;99.90;;;;;;5008988;28;20203;-81
2023/08/05 09:47:18;;;;;;;2.30;2.10;;;23.90;99.90;;;;;;4993103;28;20678;-79
2023/08/05 09:49:49;;;;;;;2.25;2.05;;;23.60;99.90;;;;;;5010884;28;20195;-80
2023/08/05 09:52:18;;;;;;;3.55;2.28;;;23.30;99.90;;;;;;4990105;28;20218;-80
2023/08/05 09:55:07;;;;;;;2.30;2.10;;;23.50;99.90;;;;;;4989768;28;20209;-79
2023/08/05 09:57:36;;;;;;;2.90;2.47;;;23.80;99.90;;;;;;4987555;28;20644;-80
2023/08/05 10:00:08;;;;;;;2.38;2.17;;;24.40;99.90;;;;;;5010604;28;20545;-81
2023/08/05 10:02:35;;;;;;;2.25;2.05;;;24.70;99.90;;;;;;5014368;28;20203;-79
2023/08/05 10:05:02;;;;;;;3.70;2.38;;;25.00;99.90;;;;;;5015529;28;20652;-80
2023/08/05 10:07:30;;;;;;;2.42;2.10;;;25.20;99.90;;;;;;4978090;28;20616;-80
2023/08/05 10:09:58;;;;;;;2.53;2.33;;;25.40;99.90;;;;;;5009711;28;20210;-80
2023/08/05 10:12:37;;;;;;;3.80;2.20;;;25.50;99.90;;;;;;5005576;28;20659;-81
2023/08/05 10:15:06;;;;;;;3.38;2.47;;;25.40;99.90;;;;;;5010570;28;20237;-80
2023/08/05 10:17:41;;;;;;;4.63;2.10;;;25.30;99.90;;;;;;5008143;28;20241;-80
2023/08/05 10:20:12;;;;;;;3.08;2.50;;;25.10;99.90;;;;;;4990964;28;20684;-79
2023/08/05 10:22:39;;;;;;;2.97;2.15;;;25.00;99.90;;;;;;4996275;28;20643;-80
2023/08/05 10:25:07;;;;;;;3.45;2.35;;;24.90;99.90;;;;;;5003928;28;20218;-81
2023/08/05 10:27:37;;;;;;;2.47;2.10;;;25.10;99.90;;;;;;4990798;28;20702;-82
2023/08/05 10:30:08;;;;;;;3.20;2.40;;;25.20;99.90;;;;;;5002428;28;20203;-82
2023/08/05 10:32:35;;;;;;;4.25;2.28;;;25.40;99.90;;;;;;5003150;28;20218;-80
2023/08/05 10:35:27;;;;;;;4.03;2.30;;;25.40;99.90;;;;;;5009586;28;20226;-81
2023/08/05 10:38:24;;;;;;;2.50;2.30;;;25.50;99.90;;;;;;4992700;28;20223;-83
2023/08/05 10:41:03;;;;;;;4.75;2.67;;;25.50;99.90;;;;;;4985722;28;20209;-79
2023/08/05 10:43:32;;;;;;;2.38;2.05;;;25.70;99.90;;;;;;4993329;28;20629;-81
2023/08/05 10:46:01;;;;;;;2.85;2.00;;;26.00;99.90;;;;;;5007883;28;20252;-79
2023/08/05 10:48:31;;;;;;;2.13;2.00;;;26.10;99.90;;;;;;5010061;28;20202;-80
2023/08/05 10:51:02;;;;;;;2.88;2.28;;;26.20;99.90;;;;;;5022996;28;20206;-81
2023/08/05 10:53:31;;;;;;;2.58;2.25;;;26.20;99.90;;;;;;5015462;28;20214;-80
2023/08/05 10:55:58;;;;;;;2.47;2.17;;;26.10;99.90;;;;;;4990535;28;20230;-81
2023/08/05 10:58:28;;;;;;;3.97;2.05;;;25.80;99.90;;;;;;5005692;28;20235;-83
2023/08/05 11:01:03;;;;;;;2.78;2.30;;;25.80;99.90;;;;;;4998287;28;20214;-79
2023/08/05 11:03:52;;;;;;;5.35;2.60;;;25.80;99.90;;;;;;4998590;28;20218;-82
2023/08/05 11:06:24;;;;;;;3.63;2.60;;;26.00;99.90;;;;;;5001665;28;20203;-86
2023/08/05 11:08:51;;;;;;;3.67;2.75;;;25.90;99.90;;;;;;5005968;28;20222;-82
2023/08/05 11:11:19;;;;;;;3.75;2.30;;;25.70;99.90;;;;;;5005623;28;20198;-82
2023/08/05 11:13:47;;;;;;;3.67;2.35;;;25.60;99.90;;;;;;5008972;28;20250;-84
2023/08/05 11:16:16;;;;;;;3.45;2.25;;;25.50;99.90;;;;;;4991442;28;20281;-82
2023/08/05 11:18:59;;;;;;;2.47;2.28;;;25.30;99.90;;;;;;4991806;28;20234;-82
2023/08/05 11:21:26;;;;;;;4.40;2.58;;;25.20;99.90;;;;;;5009440;28;20202;-81
2023/08/05 11:23:53;;;;;;;3.10;2.45;;;25.00;99.90;;;;;;5009171;28;20217;-82
2023/08/05 11:26:26;;;;;;;3.42;2.63;;;25.00;99.90;;;;;;5003333;28;20334;-89
2023/08/05 11:28:53;;;;;;;3.42;2.38;;;25.30;99.90;;;;;;5006488;28;20210;-88
2023/08/05 11:31:22;;;;;;;3.85;2.80;;;25.40;99.90;;;;;;4992485;28;20655;-86
2023/08/05 11:33:50;;;;;;;2.55;2.10;;;25.60;99.90;;;;;;4987952;28;20201;-84
2023/08/05 11:36:23;;;;;;;4.13;2.20;;;25.70;99.90;;;;;;5007495;28;20216;-84
2023/08/05 11:38:50;;;;;;;2.05;1.90;;;25.80;99.90;;;;;;5008737;28;20238;-83
2023/08/05 11:41:20;;;;;;;2.45;2.25;;;25.80;99.90;;;;;;5008461;28;20207;-84
2023/08/05 11:43:47;;;;;;;4.07;2.33;;;25.70;99.90;;;;;;5009126;28;20203;-83
2023/08/05 11:46:27;;;;;;;2.40;2.20;;;25.60;99.90;;;;;;4991962;28;20206;-85
2023/08/05 11:49:08;;;;;;;3.38;2.38;;;25.70;99.90;;;;;;4991595;28;20225;-86
2023/08/05 11:51:51;;;;;;;2.88;2.58;;;25.70;99.90;;;;;;4999097;28;20206;-84
2023/08/05 11:54:30;;;;;;;23.73;21.17;;;25.40;99.90;;;;;;4999669;28;20211;-83
2023/08/05 11:56:57;;;;;;;15.98;12.02;;;25.40;99.90;;;;;;5003686;28;20219;-83
2023/08/05 11:59:44;;;;;;;13.85;12.13;;;25.30;99.90;;;;;;4994112;28;20228;-84
2023/08/05 12:02:17;;;;;;;3.83;3.40;;;25.30;99.90;;;;;;4996653;28;20835;-83
2023/08/05 12:04:46;;;;;;;3.22;2.90;;;25.20;99.90;;;;;;5011925;28;20202;-84
2023/08/05 12:07:14;;;;;;;3.88;2.97;;;25.10;99.90;;;;;;4995080;28;20214;-84
2023/08/05 12:09:43;;;;;;;2.92;2.60;;;25.20;99.90;;;;;;5014543;28;20234;-84
2023/08/05 12:12:19;;;;;;;4.10;2.80;;;25.10;99.90;;;;;;4996715;28;20222;-84
2023/08/05 12:14:46;;;;;;;4.43;3.30;;;25.10;99.90;;;;;;5001741;28;20201;-82
2023/08/05 12:17:12;;;;;;;2.97;2.72;;;25.00;99.90;;;;;;5001123;28;20201;-83
2023/08/05 12:19:41;;;;;;;4.90;3.55;;;24.90;99.90;;;;;;5003261;28;20635;-83
2023/08/05 12:22:08;;;;;;;3.28;2.60;;;24.70;99.90;;;;;;5004907;28;20221;-83
2023/08/05 12:24:35;;;;;;;3.45;3.17;;;24.50;99.90;;;;;;5013161;28;20225;-83
2023/08/05 12:27:04;;;;;;;2.50;2.30;;;24.50;99.90;;;;;;5012127;28;20220;-83
2023/08/05 12:29:31;;;;;;;3.20;2.45;;;24.30;99.90;;;;;;4998232;28;20218;-84
2023/08/05 12:31:58;;;;;;;2.63;2.35;;;24.10;99.90;;;;;;5005987;28;20225;-82
2023/08/05 12:34:25;;;;;;;2.85;2.60;;;23.90;99.90;;;;;;5011115;28;20214;-82
2023/08/05 12:36:51;;;;;;;8.35;4.90;;;23.60;99.90;;;;;;5011869;28;20214;-83
2023/08/05 12:39:18;;;;;;;55.30;31.55;;;22.90;99.90;;;;;;5001580;28;20609;-86
2023/08/05 12:41:45;;;;;;;8.50;6.57;;;22.10;99.90;;;;;;5000291;28;20301;-82
2023/08/05 12:44:12;;;;;;;4.75;4.05;;;21.30;99.90;;;;;;5012469;28;20206;-77
2023/08/05 12:46:38;;;;;;;4.57;3.38;;;20.50;99.90;;;;;;5011736;28;20256;-78
2023/08/05 12:49:05;;;;;;;5.75;4.25;;;20.00;99.90;;;;;;5010942;28;20214;-80
2023/08/05 12:51:33;;;;;;;7.90;4.82;;;19.40;99.90;;;;;;5007348;28;20819;-81